sensor_id;sensor_type;location;lat;lon;timestamp;P1;durP1;ratioP1;P2;durP2;ratioP2
8909;SDS011;4490;49.072;8.804;2023-03-13T00:00:34;12.33;;;3.10;;
8909;SDS011;4490;49.072;8.804;2023-03-13T00:02:59;12.33;;;3.40;;
8909;SDS011;4490;49.072;8.804;2023-03-13T00:05:25;9.47;;;3.23;;
8909;SDS011;4490;49.072;8.804;2023-03-13T00:07:51;11.70;;;3.23;;
8909;SDS011;4490;49.072;8.804;2023-03-13T00:10:16;10.10;;;3.27;;
8909;SDS011;4490;49.072;8.804;2023-03-13T00:12:42;9.70;;;3.50;;
8909;SDS011;4490;49.072;8.804;2023-03-13T00:15:08;8.50;;;3.17;;
8909;SDS011;4490;49.072;8.804;2023-03-13T00:17:34;11.27;;;3.70;;
8909;SDS011;4490;49.072;8.804;2023-03-13T00:19:59;8.73;;;3.40;;
8909;SDS011;4490;49.072;8.804;2023-03-13T00:22:25;9.50;;;3.20;;
8909;SDS011;4490;49.072;8.804;2023-03-13T00:24:51;11.10;;;3.03;;
8909;SDS011;4490;49.072;8.804;2023-03-13T00:27:16;7.23;;;2.97;;
8909;SDS011;4490;49.072;8.804;2023-03-13T00:29:42;14.10;;;3.20;;
8909;SDS011;4490;49.072;8.804;2023-03-13T00:32:08;11.47;;;3.13;;
8909;SDS011;4490;49.072;8.804;2023-03-13T00:34:33;11.27;;;2.77;;
8909;SDS011;4490;49.072;8.804;2023-03-13T00:36:59;10.50;;;2.97;;
8909;SDS011;4490;49.072;8.804;2023-03-13T00:39:25;10.23;;;2.83;;
8909;SDS011;4490;49.072;8.804;2023-03-13T00:41:50;9.20;;;3.40;;
8909;SDS011;4490;49.072;8.804;2023-03-13T00:44:16;9.27;;;2.87;;
8909;SDS011;4490;49.072;8.804;2023-03-13T00:46:41;10.30;;;3.40;;
8909;SDS011;4490;49.072;8.804;2023-03-13T00:49:07;11.63;;;2.93;;
8909;SDS011;4490;49.072;8.804;2023-03-13T00:51:33;11.07;;;3.30;;
8909;SDS011;4490;49.072;8.804;2023-03-13T00:53:59;10.10;;;3.70;;
8909;SDS011;4490;49.072;8.804;2023-03-13T00:56:25;13.17;;;3.57;;
8909;SDS011;4490;49.072;8.804;2023-03-13T00:58:52;11.00;;;3.83;;
8909;SDS011;4490;49.072;8.804;2023-03-13T01:01:19;9.13;;;3.17;;
8909;SDS011;4490;49.072;8.804;2023-03-13T01:03:46;7.73;;;3.07;;
8909;SDS011;4490;49.072;8.804;2023-03-13T01:06:15;8.93;;;3.00;;
8909;SDS011;4490;49.072;8.804;2023-03-13T01:08:42;8.60;;;2.47;;
8909;SDS011;4490;49.072;8.804;2023-03-13T01:11:12;9.27;;;3.00;;
8909;SDS011;4490;49.072;8.804;2023-03-13T01:13:39;11.53;;;3.47;;
8909;SDS011;4490;49.072;8.804;2023-03-13T01:18:33;11.37;;;3.10;;
8909;SDS011;4490;49.072;8.804;2023-03-13T01:20:59;10.80;;;3.00;;
8909;SDS011;4490;49.072;8.804;2023-03-13T01:23:26;8.47;;;2.60;;
8909;SDS011;4490;49.072;8.804;2023-03-13T01:25:53;12.23;;;2.90;;
8909;SDS011;4490;49.072;8.804;2023-03-13T01:28:19;8.00;;;3.00;;
8909;SDS011;4490;49.072;8.804;2023-03-13T01:30:45;6.70;;;2.90;;
8909;SDS011;4490;49.072;8.804;2023-03-13T01:33:11;10.17;;;3.10;;
8909;SDS011;4490;49.072;8.804;2023-03-13T01:35:37;12.67;;;3.27;;
8909;SDS011;4490;49.072;8.804;2023-03-13T01:38:02;10.27;;;3.00;;
8909;SDS011;4490;49.072;8.804;2023-03-13T01:40:28;9.57;;;2.77;;
8909;SDS011;4490;49.072;8.804;2023-03-13T01:42:58;8.93;;;3.13;;
8909;SDS011;4490;49.072;8.804;2023-03-13T01:48:19;8.73;;;2.90;;
8909;SDS011;4490;49.072;8.804;2023-03-13T01:50:50;8.83;;;2.77;;
8909;SDS011;4490;49.072;8.804;2023-03-13T01:53:17;4.97;;;2.57;;
8909;SDS011;4490;49.072;8.804;2023-03-13T01:55:43;10.87;;;3.07;;
8909;SDS011;4490;49.072;8.804;2023-03-13T01:58:09;7.50;;;2.80;;
8909;SDS011;4490;49.072;8.804;2023-03-13T02:00:34;6.80;;;2.73;;
8909;SDS011;4490;49.072;8.804;2023-03-13T02:03:06;6.37;;;2.63;;
8909;SDS011;4490;49.072;8.804;2023-03-13T02:05:36;8.03;;;2.40;;
8909;SDS011;4490;49.072;8.804;2023-03-13T02:08:06;6.73;;;2.90;;
8909;SDS011;4490;49.072;8.804;2023-03-13T02:10:36;7.97;;;3.53;;
8909;SDS011;4490;49.072;8.804;2023-03-13T02:13:07;7.63;;;2.73;;
8909;SDS011;4490;49.072;8.804;2023-03-13T02:15:38;8.63;;;2.50;;
8909;SDS011;4490;49.072;8.804;2023-03-13T02:18:05;8.57;;;2.87;;
8909;SDS011;4490;49.072;8.804;2023-03-13T02:20:31;6.10;;;2.97;;
8909;SDS011;4490;49.072;8.804;2023-03-13T02:28:21;6.70;;;3.00;;
8909;SDS011;4490;49.072;8.804;2023-03-13T02:31:08;8.67;;;3.13;;
8909;SDS011;4490;49.072;8.804;2023-03-13T02:33:35;7.57;;;3.77;;
8909;SDS011;4490;49.072;8.804;2023-03-13T02:36:04;8.63;;;3.10;;
8909;SDS011;4490;49.072;8.804;2023-03-13T02:38:32;8.53;;;3.43;;
8909;SDS011;4490;49.072;8.804;2023-03-13T02:41:12;8.33;;;2.60;;
8909;SDS011;4490;49.072;8.804;2023-03-13T02:43:38;7.83;;;2.57;;
8909;SDS011;4490;49.072;8.804;2023-03-13T02:46:05;6.53;;;2.53;;
8909;SDS011;4490;49.072;8.804;2023-03-13T02:48:43;7.77;;;2.57;;
8909;SDS011;4490;49.072;8.804;2023-03-13T02:53:59;7.77;;;2.50;;
8909;SDS011;4490;49.072;8.804;2023-03-13T02:56:36;6.07;;;2.43;;
8909;SDS011;4490;49.072;8.804;2023-03-13T02:59:03;5.80;;;2.30;;
8909;SDS011;4490;49.072;8.804;2023-03-13T03:01:29;6.60;;;2.50;;
8909;SDS011;4490;49.072;8.804;2023-03-13T03:03:55;6.63;;;2.13;;
8909;SDS011;4490;49.072;8.804;2023-03-13T03:06:20;5.30;;;2.50;;
8909;SDS011;4490;49.072;8.804;2023-03-13T03:08:46;7.47;;;2.37;;
8909;SDS011;4490;49.072;8.804;2023-03-13T03:11:12;5.90;;;2.43;;
8909;SDS011;4490;49.072;8.804;2023-03-13T03:13:37;5.67;;;2.20;;
8909;SDS011;4490;49.072;8.804;2023-03-13T03:16:07;7.37;;;2.63;;
8909;SDS011;4490;49.072;8.804;2023-03-13T03:18:34;6.00;;;2.27;;
8909;SDS011;4490;49.072;8.804;2023-03-13T03:21:01;8.27;;;2.27;;
8909;SDS011;4490;49.072;8.804;2023-03-13T03:23:30;4.13;;;1.87;;
8909;SDS011;4490;49.072;8.804;2023-03-13T03:25:59;7.67;;;2.70;;
8909;SDS011;4490;49.072;8.804;2023-03-13T03:28:25;5.27;;;2.10;;
8909;SDS011;4490;49.072;8.804;2023-03-13T03:30:51;12.40;;;2.90;;
8909;SDS011;4490;49.072;8.804;2023-03-13T03:33:18;8.27;;;2.43;;
8909;SDS011;4490;49.072;8.804;2023-03-13T03:35:47;5.97;;;2.23;;
8909;SDS011;4490;49.072;8.804;2023-03-13T03:38:13;5.80;;;2.50;;
8909;SDS011;4490;49.072;8.804;2023-03-13T03:40:39;6.00;;;2.37;;
8909;SDS011;4490;49.072;8.804;2023-03-13T03:43:05;4.23;;;2.00;;
8909;SDS011;4490;49.072;8.804;2023-03-13T03:45:30;5.60;;;2.20;;
8909;SDS011;4490;49.072;8.804;2023-03-13T03:47:56;7.73;;;2.80;;
8909;SDS011;4490;49.072;8.804;2023-03-13T03:50:27;6.40;;;2.53;;
8909;SDS011;4490;49.072;8.804;2023-03-13T03:52:53;6.70;;;2.10;;
8909;SDS011;4490;49.072;8.804;2023-03-13T03:55:19;4.03;;;2.13;;
8909;SDS011;4490;49.072;8.804;2023-03-13T03:57:44;3.43;;;1.90;;
8909;SDS011;4490;49.072;8.804;2023-03-13T04:00:10;8.20;;;2.43;;
8909;SDS011;4490;49.072;8.804;2023-03-13T04:02:38;3.83;;;2.00;;
8909;SDS011;4490;49.072;8.804;2023-03-13T04:05:04;8.07;;;2.30;;
8909;SDS011;4490;49.072;8.804;2023-03-13T04:07:30;4.33;;;2.10;;
8909;SDS011;4490;49.072;8.804;2023-03-13T04:09:55;6.83;;;2.30;;
8909;SDS011;4490;49.072;8.804;2023-03-13T04:12:21;4.40;;;2.17;;
8909;SDS011;4490;49.072;8.804;2023-03-13T04:14:47;4.13;;;2.20;;
8909;SDS011;4490;49.072;8.804;2023-03-13T04:17:13;6.57;;;2.20;;
8909;SDS011;4490;49.072;8.804;2023-03-13T04:19:39;4.93;;;2.17;;
8909;SDS011;4490;49.072;8.804;2023-03-13T04:22:05;2.50;;;1.63;;
8909;SDS011;4490;49.072;8.804;2023-03-13T04:24:31;4.07;;;1.60;;
8909;SDS011;4490;49.072;8.804;2023-03-13T04:26:57;7.80;;;2.27;;
8909;SDS011;4490;49.072;8.804;2023-03-13T04:29:23;2.50;;;1.77;;
8909;SDS011;4490;49.072;8.804;2023-03-13T04:31:49;5.30;;;1.70;;
8909;SDS011;4490;49.072;8.804;2023-03-13T04:34:15;4.17;;;1.53;;
8909;SDS011;4490;49.072;8.804;2023-03-13T04:36:40;4.60;;;1.73;;
8909;SDS011;4490;49.072;8.804;2023-03-13T04:39:06;4.07;;;1.60;;
8909;SDS011;4490;49.072;8.804;2023-03-13T04:41:32;3.00;;;1.63;;
8909;SDS011;4490;49.072;8.804;2023-03-13T04:43:57;3.97;;;1.87;;
8909;SDS011;4490;49.072;8.804;2023-03-13T04:46:23;3.60;;;1.60;;
8909;SDS011;4490;49.072;8.804;2023-03-13T04:48:49;2.60;;;1.80;;
8909;SDS011;4490;49.072;8.804;2023-03-13T04:51:14;5.83;;;1.90;;
8909;SDS011;4490;49.072;8.804;2023-03-13T04:53:40;5.37;;;1.93;;
8909;SDS011;4490;49.072;8.804;2023-03-13T04:56:05;4.27;;;1.77;;
8909;SDS011;4490;49.072;8.804;2023-03-13T04:58:31;3.97;;;2.07;;
8909;SDS011;4490;49.072;8.804;2023-03-13T05:00:57;2.67;;;1.73;;
8909;SDS011;4490;49.072;8.804;2023-03-13T05:03:22;4.70;;;1.80;;
8909;SDS011;4490;49.072;8.804;2023-03-13T05:05:48;4.50;;;1.80;;
8909;SDS011;4490;49.072;8.804;2023-03-13T05:08:14;1.70;;;1.30;;
8909;SDS011;4490;49.072;8.804;2023-03-13T05:10:42;1.83;;;1.40;;
8909;SDS011;4490;49.072;8.804;2023-03-13T05:13:08;1.50;;;1.10;;
8909;SDS011;4490;49.072;8.804;2023-03-13T05:15:34;3.30;;;1.20;;
8909;SDS011;4490;49.072;8.804;2023-03-13T05:18:00;1.43;;;0.80;;
8909;SDS011;4490;49.072;8.804;2023-03-13T05:20:26;2.00;;;1.13;;
8909;SDS011;4490;49.072;8.804;2023-03-13T05:22:51;1.10;;;1.00;;
8909;SDS011;4490;49.072;8.804;2023-03-13T05:25:17;1.27;;;1.13;;
8909;SDS011;4490;49.072;8.804;2023-03-13T05:27:43;1.80;;;1.20;;
8909;SDS011;4490;49.072;8.804;2023-03-13T05:30:09;2.60;;;1.00;;
8909;SDS011;4490;49.072;8.804;2023-03-13T05:32:35;1.33;;;1.07;;
8909;SDS011;4490;49.072;8.804;2023-03-13T05:35:01;1.87;;;0.93;;
8909;SDS011;4490;49.072;8.804;2023-03-13T05:37:27;0.93;;;0.80;;
8909;SDS011;4490;49.072;8.804;2023-03-13T05:39:52;0.80;;;0.80;;
8909;SDS011;4490;49.072;8.804;2023-03-13T05:42:18;0.90;;;0.90;;
8909;SDS011;4490;49.072;8.804;2023-03-13T05:44:43;0.67;;;0.67;;
8909;SDS011;4490;49.072;8.804;2023-03-13T05:47:09;0.83;;;0.83;;
8909;SDS011;4490;49.072;8.804;2023-03-13T05:49:35;1.00;;;0.90;;
8909;SDS011;4490;49.072;8.804;2023-03-13T05:52:00;1.63;;;1.10;;
8909;SDS011;4490;49.072;8.804;2023-03-13T05:54:26;0.87;;;0.87;;
8909;SDS011;4490;49.072;8.804;2023-03-13T05:56:52;1.17;;;0.70;;
8909;SDS011;4490;49.072;8.804;2023-03-13T05:59:17;1.50;;;0.90;;
8909;SDS011;4490;49.072;8.804;2023-03-13T06:01:43;0.70;;;0.70;;
8909;SDS011;4490;49.072;8.804;2023-03-13T06:04:09;0.70;;;0.70;;
8909;SDS011;4490;49.072;8.804;2023-03-13T06:06:34;0.93;;;0.93;;
8909;SDS011;4490;49.072;8.804;2023-03-13T06:09:00;0.70;;;0.70;;
8909;SDS011;4490;49.072;8.804;2023-03-13T06:11:25;0.80;;;0.80;;
8909;SDS011;4490;49.072;8.804;2023-03-13T06:13:51;0.70;;;0.70;;
8909;SDS011;4490;49.072;8.804;2023-03-13T06:16:17;0.90;;;0.90;;
8909;SDS011;4490;49.072;8.804;2023-03-13T06:18:43;0.90;;;0.90;;
8909;SDS011;4490;49.072;8.804;2023-03-13T06:21:09;0.67;;;0.67;;
8909;SDS011;4490;49.072;8.804;2023-03-13T06:23:35;0.87;;;0.87;;
8909;SDS011;4490;49.072;8.804;2023-03-13T06:26:01;0.80;;;0.80;;
8909;SDS011;4490;49.072;8.804;2023-03-13T06:28:27;1.10;;;1.00;;
8909;SDS011;4490;49.072;8.804;2023-03-13T06:30:52;1.40;;;0.80;;
8909;SDS011;4490;49.072;8.804;2023-03-13T06:33:19;0.87;;;0.87;;
8909;SDS011;4490;49.072;8.804;2023-03-13T06:35:45;0.70;;;0.70;;
8909;SDS011;4490;49.072;8.804;2023-03-13T06:38:10;0.60;;;0.60;;
8909;SDS011;4490;49.072;8.804;2023-03-13T06:40:36;0.90;;;0.90;;
8909;SDS011;4490;49.072;8.804;2023-03-13T06:43:02;0.87;;;0.80;;
8909;SDS011;4490;49.072;8.804;2023-03-13T06:45:28;1.33;;;0.90;;
8909;SDS011;4490;49.072;8.804;2023-03-13T06:47:54;1.00;;;0.90;;
8909;SDS011;4490;49.072;8.804;2023-03-13T06:50:19;0.93;;;0.90;;
8909;SDS011;4490;49.072;8.804;2023-03-13T06:52:45;2.63;;;1.00;;
8909;SDS011;4490;49.072;8.804;2023-03-13T06:55:12;0.80;;;0.80;;
8909;SDS011;4490;49.072;8.804;2023-03-13T06:57:38;0.80;;;0.80;;
8909;SDS011;4490;49.072;8.804;2023-03-13T07:00:04;0.70;;;0.70;;
8909;SDS011;4490;49.072;8.804;2023-03-13T07:02:31;0.80;;;0.80;;
8909;SDS011;4490;49.072;8.804;2023-03-13T07:04:57;0.87;;;0.87;;
8909;SDS011;4490;49.072;8.804;2023-03-13T07:07:22;0.90;;;0.90;;
8909;SDS011;4490;49.072;8.804;2023-03-13T07:09:49;1.00;;;1.00;;
8909;SDS011;4490;49.072;8.804;2023-03-13T07:12:14;1.00;;;0.90;;
8909;SDS011;4490;49.072;8.804;2023-03-13T07:14:41;0.80;;;0.80;;
8909;SDS011;4490;49.072;8.804;2023-03-13T07:17:06;0.90;;;0.90;;
8909;SDS011;4490;49.072;8.804;2023-03-13T07:19:32;1.00;;;0.93;;
8909;SDS011;4490;49.072;8.804;2023-03-13T07:21:58;1.40;;;0.87;;
8909;SDS011;4490;49.072;8.804;2023-03-13T07:24:23;1.50;;;0.90;;
8909;SDS011;4490;49.072;8.804;2023-03-13T07:26:49;0.77;;;0.77;;
8909;SDS011;4490;49.072;8.804;2023-03-13T07:29:15;0.90;;;0.80;;
8909;SDS011;4490;49.072;8.804;2023-03-13T07:31:40;0.90;;;0.80;;
8909;SDS011;4490;49.072;8.804;2023-03-13T07:34:06;2.67;;;0.90;;
8909;SDS011;4490;49.072;8.804;2023-03-13T07:36:31;0.80;;;0.80;;
8909;SDS011;4490;49.072;8.804;2023-03-13T07:38:59;0.83;;;0.83;;
8909;SDS011;4490;49.072;8.804;2023-03-13T07:41:25;1.17;;;1.07;;
8909;SDS011;4490;49.072;8.804;2023-03-13T07:43:51;1.27;;;0.83;;
8909;SDS011;4490;49.072;8.804;2023-03-13T07:46:17;0.83;;;0.80;;
8909;SDS011;4490;49.072;8.804;2023-03-13T07:48:44;0.97;;;0.80;;
8909;SDS011;4490;49.072;8.804;2023-03-13T07:51:11;1.00;;;0.90;;
8909;SDS011;4490;49.072;8.804;2023-03-13T07:53:39;1.03;;;1.00;;
8909;SDS011;4490;49.072;8.804;2023-03-13T07:56:05;0.90;;;0.90;;
8909;SDS011;4490;49.072;8.804;2023-03-13T07:58:34;0.93;;;0.93;;
8909;SDS011;4490;49.072;8.804;2023-03-13T08:03:34;0.90;;;0.90;;
8909;SDS011;4490;49.072;8.804;2023-03-13T08:06:00;0.90;;;0.90;;
8909;SDS011;4490;49.072;8.804;2023-03-13T08:08:28;1.00;;;0.90;;
8909;SDS011;4490;49.072;8.804;2023-03-13T08:13:34;1.60;;;1.17;;
8909;SDS011;4490;49.072;8.804;2023-03-13T08:16:01;0.80;;;0.80;;
8909;SDS011;4490;49.072;8.804;2023-03-13T08:18:28;0.90;;;0.90;;
8909;SDS011;4490;49.072;8.804;2023-03-13T08:20:59;3.00;;;1.03;;
8909;SDS011;4490;49.072;8.804;2023-03-13T08:23:28;0.90;;;0.90;;
8909;SDS011;4490;49.072;8.804;2023-03-13T08:25:54;0.80;;;0.80;;
8909;SDS011;4490;49.072;8.804;2023-03-13T08:28:20;1.67;;;1.10;;
8909;SDS011;4490;49.072;8.804;2023-03-13T08:30:45;0.83;;;0.83;;
8909;SDS011;4490;49.072;8.804;2023-03-13T08:33:11;1.67;;;0.90;;
8909;SDS011;4490;49.072;8.804;2023-03-13T08:35:36;0.93;;;0.93;;
8909;SDS011;4490;49.072;8.804;2023-03-13T08:38:02;0.93;;;0.93;;
8909;SDS011;4490;49.072;8.804;2023-03-13T08:40:28;1.00;;;1.00;;
8909;SDS011;4490;49.072;8.804;2023-03-13T08:42:53;1.00;;;0.97;;
8909;SDS011;4490;49.072;8.804;2023-03-13T08:45:19;0.90;;;0.90;;
8909;SDS011;4490;49.072;8.804;2023-03-13T08:47:44;2.40;;;1.17;;
8909;SDS011;4490;49.072;8.804;2023-03-13T08:50:10;2.40;;;1.30;;
8909;SDS011;4490;49.072;8.804;2023-03-13T08:52:36;1.87;;;1.00;;
8909;SDS011;4490;49.072;8.804;2023-03-13T08:55:01;1.23;;;0.90;;
8909;SDS011;4490;49.072;8.804;2023-03-13T08:57:30;1.07;;;0.97;;
8909;SDS011;4490;49.072;8.804;2023-03-13T08:59:56;1.10;;;1.10;;
8909;SDS011;4490;49.072;8.804;2023-03-13T09:02:21;2.03;;;1.20;;
8909;SDS011;4490;49.072;8.804;2023-03-13T09:04:47;1.20;;;1.10;;
8909;SDS011;4490;49.072;8.804;2023-03-13T09:07:13;1.10;;;1.10;;
8909;SDS011;4490;49.072;8.804;2023-03-13T09:09:39;2.67;;;1.20;;
8909;SDS011;4490;49.072;8.804;2023-03-13T09:12:04;1.97;;;1.30;;
8909;SDS011;4490;49.072;8.804;2023-03-13T09:14:30;1.00;;;1.00;;
8909;SDS011;4490;49.072;8.804;2023-03-13T09:16:57;2.90;;;1.30;;
8909;SDS011;4490;49.072;8.804;2023-03-13T09:19:23;1.33;;;1.27;;
8909;SDS011;4490;49.072;8.804;2023-03-13T09:21:49;2.03;;;1.23;;
8909;SDS011;4490;49.072;8.804;2023-03-13T09:24:14;1.17;;;1.17;;
8909;SDS011;4490;49.072;8.804;2023-03-13T09:26:40;3.40;;;1.20;;
8909;SDS011;4490;49.072;8.804;2023-03-13T09:29:06;1.63;;;1.30;;
8909;SDS011;4490;49.072;8.804;2023-03-13T09:31:32;3.07;;;1.20;;
8909;SDS011;4490;49.072;8.804;2023-03-13T09:33:58;1.57;;;1.47;;
8909;SDS011;4490;49.072;8.804;2023-03-13T09:36:27;2.33;;;1.80;;
8909;SDS011;4490;49.072;8.804;2023-03-13T09:38:55;1.57;;;1.40;;
8909;SDS011;4490;49.072;8.804;2023-03-13T09:41:33;3.03;;;1.50;;
8909;SDS011;4490;49.072;8.804;2023-03-13T09:44:10;4.23;;;1.30;;
8909;SDS011;4490;49.072;8.804;2023-03-13T09:46:41;3.23;;;1.60;;
8909;SDS011;4490;49.072;8.804;2023-03-13T09:49:19;3.77;;;1.83;;
8909;SDS011;4490;49.072;8.804;2023-03-13T09:52:14;2.97;;;1.43;;
8909;SDS011;4490;49.072;8.804;2023-03-13T09:55:02;3.47;;;1.70;;
8909;SDS011;4490;49.072;8.804;2023-03-13T10:00:09;2.00;;;1.67;;
8909;SDS011;4490;49.072;8.804;2023-03-13T10:05:37;2.07;;;1.27;;
8909;SDS011;4490;49.072;8.804;2023-03-13T10:14:05;1.60;;;1.50;;
8909;SDS011;4490;49.072;8.804;2023-03-13T10:19:32;1.83;;;1.40;;
8909;SDS011;4490;49.072;8.804;2023-03-13T10:22:02;2.77;;;1.60;;
8909;SDS011;4490;49.072;8.804;2023-03-13T10:27:03;1.83;;;1.60;;
8909;SDS011;4490;49.072;8.804;2023-03-13T10:29:29;2.70;;;1.40;;
8909;SDS011;4490;49.072;8.804;2023-03-13T10:34:23;2.73;;;1.70;;
8909;SDS011;4490;49.072;8.804;2023-03-13T10:36:53;2.20;;;1.60;;
8909;SDS011;4490;49.072;8.804;2023-03-13T10:39:24;4.40;;;1.77;;
8909;SDS011;4490;49.072;8.804;2023-03-13T10:41:56;4.40;;;1.73;;
8909;SDS011;4490;49.072;8.804;2023-03-13T10:44:33;2.17;;;1.83;;
8909;SDS011;4490;49.072;8.804;2023-03-13T10:46:59;4.17;;;1.70;;
8909;SDS011;4490;49.072;8.804;2023-03-13T10:49:29;3.07;;;1.67;;
8909;SDS011;4490;49.072;8.804;2023-03-13T10:52:02;1.73;;;1.40;;
8909;SDS011;4490;49.072;8.804;2023-03-13T10:59:43;4.90;;;1.80;;
8909;SDS011;4490;49.072;8.804;2023-03-13T11:04:57;4.80;;;1.63;;
8909;SDS011;4490;49.072;8.804;2023-03-13T11:07:36;2.23;;;2.03;;
8909;SDS011;4490;49.072;8.804;2023-03-13T11:12:49;3.13;;;2.00;;
8909;SDS011;4490;49.072;8.804;2023-03-13T11:15:24;2.67;;;1.90;;
8909;SDS011;4490;49.072;8.804;2023-03-13T11:20:38;3.80;;;1.83;;
8909;SDS011;4490;49.072;8.804;2023-03-13T11:25:45;2.33;;;1.70;;
8909;SDS011;4490;49.072;8.804;2023-03-13T11:29:34;3.13;;;2.07;;
8909;SDS011;4490;49.072;8.804;2023-03-13T11:31:56;3.43;;;2.10;;
8909;SDS011;4490;49.072;8.804;2023-03-13T11:34:41;2.27;;;1.90;;
8909;SDS011;4490;49.072;8.804;2023-03-13T11:37:11;2.60;;;1.80;;
8909;SDS011;4490;49.072;8.804;2023-03-13T11:39:56;4.97;;;1.77;;
8909;SDS011;4490;49.072;8.804;2023-03-13T11:51:03;3.00;;;2.10;;
8909;SDS011;4490;49.072;8.804;2023-03-13T11:53:55;2.40;;;2.00;;
8909;SDS011;4490;49.072;8.804;2023-03-13T11:56:43;1.93;;;1.70;;
8909;SDS011;4490;49.072;8.804;2023-03-13T12:02:01;2.80;;;1.90;;
8909;SDS011;4490;49.072;8.804;2023-03-13T12:04:43;1.87;;;1.77;;
8909;SDS011;4490;49.072;8.804;2023-03-13T12:08:14;2.60;;;1.70;;
8909;SDS011;4490;49.072;8.804;2023-03-13T12:10:21;2.80;;;1.63;;
8909;SDS011;4490;49.072;8.804;2023-03-13T12:13:02;1.93;;;1.50;;
8909;SDS011;4490;49.072;8.804;2023-03-13T12:15:42;3.27;;;1.70;;
8909;SDS011;4490;49.072;8.804;2023-03-13T12:18:17;2.17;;;1.97;;
8909;SDS011;4490;49.072;8.804;2023-03-13T12:21:02;2.87;;;2.13;;
8909;SDS011;4490;49.072;8.804;2023-03-13T12:26:05;3.47;;;2.20;;
8909;SDS011;4490;49.072;8.804;2023-03-13T12:28:38;2.17;;;1.87;;
8909;SDS011;4490;49.072;8.804;2023-03-13T12:31:18;2.67;;;2.07;;
8909;SDS011;4490;49.072;8.804;2023-03-13T12:36:40;2.47;;;1.90;;
8909;SDS011;4490;49.072;8.804;2023-03-13T12:45:09;3.33;;;1.60;;
8909;SDS011;4490;49.072;8.804;2023-03-13T12:47:58;2.60;;;1.97;;
8909;SDS011;4490;49.072;8.804;2023-03-13T12:50:44;1.70;;;1.60;;
8909;SDS011;4490;49.072;8.804;2023-03-13T12:58:49;2.90;;;1.73;;
8909;SDS011;4490;49.072;8.804;2023-03-13T13:01:27;1.97;;;1.73;;
8909;SDS011;4490;49.072;8.804;2023-03-13T13:03:58;2.00;;;1.50;;
8909;SDS011;4490;49.072;8.804;2023-03-13T13:07:20;1.70;;;1.60;;
8909;SDS011;4490;49.072;8.804;2023-03-13T13:12:34;3.22;;;1.90;;
8909;SDS011;4490;49.072;8.804;2023-03-13T13:15:10;3.05;;;1.50;;
8909;SDS011;4490;49.072;8.804;2023-03-13T13:18:40;1.52;;;1.42;;
8909;SDS011;4490;49.072;8.804;2023-03-13T13:20:41;2.67;;;1.50;;
8909;SDS011;4490;49.072;8.804;2023-03-13T13:25:47;1.90;;;1.63;;
8909;SDS011;4490;49.072;8.804;2023-03-13T13:30:49;3.42;;;1.52;;
8909;SDS011;4490;49.072;8.804;2023-03-13T13:38:36;4.32;;;1.83;;
8909;SDS011;4490;49.072;8.804;2023-03-13T13:43:34;1.60;;;1.50;;
8909;SDS011;4490;49.072;8.804;2023-03-13T13:48:37;2.10;;;1.60;;
8909;SDS011;4490;49.072;8.804;2023-03-13T14:04:45;1.63;;;1.20;;
8909;SDS011;4490;49.072;8.804;2023-03-13T14:07:47;1.40;;;1.30;;
8909;SDS011;4490;49.072;8.804;2023-03-13T14:12:56;2.45;;;1.67;;
8909;SDS011;4490;49.072;8.804;2023-03-13T14:15:24;1.10;;;1.10;;
8909;SDS011;4490;49.072;8.804;2023-03-13T14:23:08;18.98;;;5.30;;
8909;SDS011;4490;49.072;8.804;2023-03-13T14:25:48;9.90;;;4.10;;
8909;SDS011;4490;49.072;8.804;2023-03-13T14:28:36;2.38;;;1.50;;
8909;SDS011;4490;49.072;8.804;2023-03-13T14:31:02;3.53;;;1.60;;
8909;SDS011;4490;49.072;8.804;2023-03-13T14:33:28;1.50;;;1.20;;
8909;SDS011;4490;49.072;8.804;2023-03-13T14:35:53;2.05;;;1.20;;
8909;SDS011;4490;49.072;8.804;2023-03-13T14:38:23;1.92;;;1.30;;
8909;SDS011;4490;49.072;8.804;2023-03-13T14:40:50;1.80;;;1.50;;
8909;SDS011;4490;49.072;8.804;2023-03-13T14:46:14;1.67;;;1.50;;
8909;SDS011;4490;49.072;8.804;2023-03-13T14:48:52;1.42;;;1.33;;
8909;SDS011;4490;49.072;8.804;2023-03-13T14:51:20;2.70;;;1.40;;
8909;SDS011;4490;49.072;8.804;2023-03-13T14:53:58;1.40;;;1.30;;
8909;SDS011;4490;49.072;8.804;2023-03-13T14:56:33;3.13;;;1.60;;
8909;SDS011;4490;49.072;8.804;2023-03-13T14:59:16;3.22;;;1.30;;
8909;SDS011;4490;49.072;8.804;2023-03-13T15:01:44;1.83;;;1.33;;
8909;SDS011;4490;49.072;8.804;2023-03-13T15:04:10;3.28;;;1.45;;
8909;SDS011;4490;49.072;8.804;2023-03-13T15:06:36;1.95;;;1.30;;
8909;SDS011;4490;49.072;8.804;2023-03-13T15:09:15;1.92;;;1.20;;
8909;SDS011;4490;49.072;8.804;2023-03-13T15:11:54;2.80;;;1.50;;
8909;SDS011;4490;49.072;8.804;2023-03-13T15:16:58;2.17;;;1.60;;
8909;SDS011;4490;49.072;8.804;2023-03-13T15:19:23;1.55;;;1.45;;
8909;SDS011;4490;49.072;8.804;2023-03-13T15:21:49;1.45;;;1.20;;
8909;SDS011;4490;49.072;8.804;2023-03-13T15:24:16;2.58;;;1.38;;
8909;SDS011;4490;49.072;8.804;2023-03-13T15:26:41;5.20;;;1.58;;
8909;SDS011;4490;49.072;8.804;2023-03-13T15:29:07;1.58;;;1.38;;
8909;SDS011;4490;49.072;8.804;2023-03-13T15:31:36;2.67;;;1.40;;
8909;SDS011;4490;49.072;8.804;2023-03-13T15:34:05;2.53;;;1.30;;
8909;SDS011;4490;49.072;8.804;2023-03-13T15:36:37;1.65;;;1.20;;
8909;SDS011;4490;49.072;8.804;2023-03-13T15:39:08;2.22;;;1.35;;
8909;SDS011;4490;49.072;8.804;2023-03-13T15:41:43;2.45;;;1.50;;
8909;SDS011;4490;49.072;8.804;2023-03-13T15:44:08;2.33;;;1.50;;
8909;SDS011;4490;49.072;8.804;2023-03-13T15:46:34;1.98;;;1.27;;
8909;SDS011;4490;49.072;8.804;2023-03-13T15:49:00;1.58;;;1.35;;
8909;SDS011;4490;49.072;8.804;2023-03-13T15:51:26;2.25;;;1.40;;
8909;SDS011;4490;49.072;8.804;2023-03-13T15:53:51;1.10;;;1.10;;
8909;SDS011;4490;49.072;8.804;2023-03-13T15:56:18;2.72;;;1.45;;
8909;SDS011;4490;49.072;8.804;2023-03-13T15:58:47;2.00;;;1.35;;
8909;SDS011;4490;49.072;8.804;2023-03-13T16:01:14;1.77;;;1.10;;
8909;SDS011;4490;49.072;8.804;2023-03-13T16:03:40;1.58;;;1.48;;
8909;SDS011;4490;49.072;8.804;2023-03-13T16:06:24;1.23;;;1.20;;
8909;SDS011;4490;49.072;8.804;2023-03-13T16:09:00;1.70;;;1.42;;
8909;SDS011;4490;49.072;8.804;2023-03-13T16:11:27;2.53;;;1.27;;
8909;SDS011;4490;49.072;8.804;2023-03-13T16:13:53;2.45;;;1.20;;
8909;SDS011;4490;49.072;8.804;2023-03-13T16:16:23;1.42;;;1.20;;
8909;SDS011;4490;49.072;8.804;2023-03-13T16:18:53;1.77;;;1.42;;
8909;SDS011;4490;49.072;8.804;2023-03-13T16:21:21;1.42;;;1.10;;
8909;SDS011;4490;49.072;8.804;2023-03-13T16:23:52;1.33;;;1.10;;
8909;SDS011;4490;49.072;8.804;2023-03-13T16:26:22;2.17;;;1.40;;
8909;SDS011;4490;49.072;8.804;2023-03-13T16:28:49;1.40;;;1.30;;
8909;SDS011;4490;49.072;8.804;2023-03-13T16:31:21;6.05;;;1.40;;
8909;SDS011;4490;49.072;8.804;2023-03-13T16:33:57;1.42;;;1.10;;
8909;SDS011;4490;49.072;8.804;2023-03-13T16:36:25;2.38;;;1.30;;
8909;SDS011;4490;49.072;8.804;2023-03-13T16:38:52;4.07;;;1.50;;
8909;SDS011;4490;49.072;8.804;2023-03-13T16:41:20;1.42;;;1.33;;
8909;SDS011;4490;49.072;8.804;2023-03-13T16:43:47;1.50;;;1.00;;
8909;SDS011;4490;49.072;8.804;2023-03-13T16:46:15;2.58;;;1.50;;
8909;SDS011;4490;49.072;8.804;2023-03-13T16:48:43;1.70;;;1.23;;
8909;SDS011;4490;49.072;8.804;2023-03-13T16:53:43;2.08;;;1.50;;
8909;SDS011;4490;49.072;8.804;2023-03-13T16:56:18;2.03;;;1.52;;
8909;SDS011;4490;49.072;8.804;2023-03-13T16:58:45;1.92;;;1.63;;
8909;SDS011;4490;49.072;8.804;2023-03-13T17:01:11;2.10;;;1.58;;
8909;SDS011;4490;49.072;8.804;2023-03-13T17:03:37;2.75;;;1.70;;
8909;SDS011;4490;49.072;8.804;2023-03-13T17:06:03;3.35;;;1.65;;
8909;SDS011;4490;49.072;8.804;2023-03-13T17:08:29;3.15;;;2.15;;
8909;SDS011;4490;49.072;8.804;2023-03-13T17:10:55;5.05;;;3.42;;
8909;SDS011;4490;49.072;8.804;2023-03-13T17:13:21;9.65;;;5.80;;
8909;SDS011;4490;49.072;8.804;2023-03-13T17:15:48;7.63;;;6.82;;
8909;SDS011;4490;49.072;8.804;2023-03-13T17:18:14;7.35;;;6.10;;
8909;SDS011;4490;49.072;8.804;2023-03-13T17:20:40;9.00;;;7.07;;
8909;SDS011;4490;49.072;8.804;2023-03-13T17:23:05;17.55;;;9.45;;
8909;SDS011;4490;49.072;8.804;2023-03-13T17:25:31;18.00;;;10.00;;
8909;SDS011;4490;49.072;8.804;2023-03-13T17:27:57;12.00;;;7.97;;
8909;SDS011;4490;49.072;8.804;2023-03-13T17:30:27;2.58;;;2.25;;
8909;SDS011;4490;49.072;8.804;2023-03-13T17:32:54;2.78;;;1.58;;
8909;SDS011;4490;49.072;8.804;2023-03-13T17:35:20;2.40;;;1.55;;